sensor_id;sensor_type;location;lat;lon;timestamp;pressure;altitude;pressure_sealevel;temperature;humidity
38054;BME280;23859;50.672;7.164;2023-03-18T00:00:04;96204.56;;;11.63;100.00
38054;BME280;23859;50.672;7.164;2023-03-18T00:02:35;96205.06;;;11.60;100.00
38054;BME280;23859;50.672;7.164;2023-03-18T00:05:02;96222.97;;;11.48;100.00
38054;BME280;23859;50.672;7.164;2023-03-18T00:07:28;96222.88;;;11.38;100.00
38054;BME280;23859;50.672;7.164;2023-03-18T00:09:54;96221.88;;;11.44;100.00
38054;BME280;23859;50.672;7.164;2023-03-18T00:12:20;96225.28;;;11.61;100.00
38054;BME280;23859;50.672;7.164;2023-03-18T00:14:46;96224.72;;;11.59;100.00
38054;BME280;23859;50.672;7.164;2023-03-18T00:17:12;96230.84;;;11.59;100.00
38054;BME280;23859;50.672;7.164;2023-03-18T00:19:38;96223.75;;;11.70;100.00
38054;BME280;23859;50.672;7.164;2023-03-18T00:22:04;96223.94;;;11.58;100.00
38054;BME280;23859;50.672;7.164;2023-03-18T00:24:31;96224.38;;;11.77;100.00
38054;BME280;23859;50.672;7.164;2023-03-18T00:26:57;96226.31;;;11.60;100.00
38054;BME280;23859;50.672;7.164;2023-03-18T00:29:23;96226.19;;;11.50;100.00
38054;BME280;23859;50.672;7.164;2023-03-18T00:31:50;96225.78;;;11.58;100.00
38054;BME280;23859;50.672;7.164;2023-03-18T00:34:17;96222.53;;;11.51;100.00
38054;BME280;23859;50.672;7.164;2023-03-18T00:36:43;96223.66;;;11.60;100.00
38054;BME280;23859;50.672;7.164;2023-03-18T00:39:11;96228.72;;;11.61;100.00
38054;BME280;23859;50.672;7.164;2023-03-18T00:41:38;96236.03;;;11.49;100.00
38054;BME280;23859;50.672;7.164;2023-03-18T00:44:04;96230.09;;;11.42;100.00
38054;BME280;23859;50.672;7.164;2023-03-18T00:46:33;96223.69;;;11.38;100.00
38054;BME280;23859;50.672;7.164;2023-03-18T00:49:01;96232.63;;;11.54;100.00
38054;BME280;23859;50.672;7.164;2023-03-18T00:51:30;96226.19;;;11.50;100.00
38054;BME280;23859;50.672;7.164;2023-03-18T00:54:05;96231.72;;;11.43;100.00
38054;BME280;23859;50.672;7.164;2023-03-18T00:56:33;96236.22;;;11.43;100.00
38054;BME280;23859;50.672;7.164;2023-03-18T00:59:00;96237.34;;;11.47;100.00
38054;BME280;23859;50.672;7.164;2023-03-18T01:01:28;96229.91;;;11.49;100.00
38054;BME280;23859;50.672;7.164;2023-03-18T01:03:54;96226.09;;;11.40;100.00
38054;BME280;23859;50.672;7.164;2023-03-18T01:06:23;96220.09;;;11.28;100.00
38054;BME280;23859;50.672;7.164;2023-03-18T01:08:50;96222.34;;;11.36;100.00
38054;BME280;23859;50.672;7.164;2023-03-18T01:11:17;96212.25;;;11.38;100.00
38054;BME280;23859;50.672;7.164;2023-03-18T01:13:44;96210.16;;;11.40;100.00
38054;BME280;23859;50.672;7.164;2023-03-18T01:16:10;96210.34;;;11.33;100.00
38054;BME280;23859;50.672;7.164;2023-03-18T01:18:37;96217.56;;;11.38;100.00
38054;BME280;23859;50.672;7.164;2023-03-18T01:21:04;96217.06;;;11.41;100.00
38054;BME280;23859;50.672;7.164;2023-03-18T01:23:31;96212.66;;;11.25;100.00
38054;BME280;23859;50.672;7.164;2023-03-18T01:25:57;96224.00;;;11.42;100.00
38054;BME280;23859;50.672;7.164;2023-03-18T01:28:24;96224.00;;;11.42;100.00
38054;BME280;23859;50.672;7.164;2023-03-18T01:30:52;96213.28;;;11.37;100.00
38054;BME280;23859;50.672;7.164;2023-03-18T01:33:18;96213.75;;;11.29;100.00
38054;BME280;23859;50.672;7.164;2023-03-18T01:35:45;96210.94;;;11.40;100.00
38054;BME280;23859;50.672;7.164;2023-03-18T01:38:12;96220.66;;;11.30;100.00
38054;BME280;23859;50.672;7.164;2023-03-18T01:40:39;96209.22;;;11.29;100.00
38054;BME280;23859;50.672;7.164;2023-03-18T01:43:18;96210.34;;;11.33;100.00
38054;BME280;23859;50.672;7.164;2023-03-18T01:45:50;96207.75;;;11.38;100.00
38054;BME280;23859;50.672;7.164;2023-03-18T01:48:18;96193.31;;;11.34;100.00
38054;BME280;23859;50.672;7.164;2023-03-18T01:50:50;96206.03;;;11.27;100.00
38054;BME280;23859;50.672;7.164;2023-03-18T01:53:18;96200.16;;;11.26;100.00
38054;BME280;23859;50.672;7.164;2023-03-18T01:55:46;96204.16;;;11.28;100.00
38054;BME280;23859;50.672;7.164;2023-03-18T01:58:19;96207.34;;;11.25;100.00
38054;BME280;23859;50.672;7.164;2023-03-18T02:00:52;96202.91;;;11.35;100.00
38054;BME280;23859;50.672;7.164;2023-03-18T02:03:19;96202.84;;;11.30;100.00
38054;BME280;23859;50.672;7.164;2023-03-18T02:05:48;96206.38;;;11.36;100.00
38054;BME280;23859;50.672;7.164;2023-03-18T02:08:15;96201.88;;;11.36;100.00
38054;BME280;23859;50.672;7.164;2023-03-18T02:10:50;96194.56;;;11.27;100.00
38054;BME280;23859;50.672;7.164;2023-03-18T02:13:17;96204.97;;;11.28;100.00
38054;BME280;23859;50.672;7.164;2023-03-18T02:15:54;96197.06;;;11.33;100.00
38054;BME280;23859;50.672;7.164;2023-03-18T02:18:28;96190.88;;;11.28;100.00
38054;BME280;23859;50.672;7.164;2023-03-18T02:24:10;96194.47;;;11.17;100.00
38054;BME280;23859;50.672;7.164;2023-03-18T02:27:00;96190.41;;;11.10;100.00
38054;BME280;23859;50.672;7.164;2023-03-18T02:29:29;96190.47;;;11.15;100.00
38054;BME280;23859;50.672;7.164;2023-03-18T02:31:57;96203.81;;;11.20;100.00
38054;BME280;23859;50.672;7.164;2023-03-18T02:34:26;96212.03;;;11.18;100.00
38054;BME280;23859;50.672;7.164;2023-03-18T02:36:53;96109.66;;;10.42;100.00
38054;BME280;23859;50.672;7.164;2023-03-18T02:39:21;96093.63;;;10.32;100.00
38054;BME280;23859;50.672;7.164;2023-03-18T02:41:47;96198.25;;;11.00;100.00
38054;BME280;23859;50.672;7.164;2023-03-18T02:44:14;96194.00;;;10.99;100.00
38054;BME280;23859;50.672;7.164;2023-03-18T02:49:12;96194.38;;;11.07;100.00
38054;BME280;23859;50.672;7.164;2023-03-18T02:51:39;96194.00;;;10.99;100.00
38054;BME280;23859;50.672;7.164;2023-03-18T02:54:11;96198.25;;;11.00;100.00
38054;BME280;23859;50.672;7.164;2023-03-18T02:56:39;96089.47;;;10.19;100.00
38054;BME280;23859;50.672;7.164;2023-03-18T02:59:06;96199.47;;;10.71;100.00
38054;BME280;23859;50.672;7.164;2023-03-18T03:01:33;96193.25;;;10.61;100.00
38054;BME280;23859;50.672;7.164;2023-03-18T03:03:59;96195.03;;;10.55;100.00
38054;BME280;23859;50.672;7.164;2023-03-18T03:06:26;96192.69;;;10.59;100.00
38054;BME280;23859;50.672;7.164;2023-03-18T03:08:52;96199.53;;;10.55;100.00
38054;BME280;23859;50.672;7.164;2023-03-18T03:11:20;96201.63;;;10.53;100.00
38054;BME280;23859;50.672;7.164;2023-03-18T03:13:47;96190.41;;;10.46;100.00
38054;BME280;23859;50.672;7.164;2023-03-18T03:16:14;96188.34;;;10.31;100.00
38054;BME280;23859;50.672;7.164;2023-03-18T03:18:41;96198.44;;;10.34;100.00
38054;BME280;23859;50.672;7.164;2023-03-18T03:21:09;96191.06;;;10.20;100.00
38054;BME280;23859;50.672;7.164;2023-03-18T03:23:35;96192.34;;;10.17;100.00
38054;BME280;23859;50.672;7.164;2023-03-18T03:26:02;96192.03;;;10.30;100.00
38054;BME280;23859;50.672;7.164;2023-03-18T03:28:29;96200.25;;;10.29;100.00
38054;BME280;23859;50.672;7.164;2023-03-18T03:30:57;96203.72;;;10.13;100.00
38054;BME280;23859;50.672;7.164;2023-03-18T03:33:24;96208.56;;;9.88;100.00
38054;BME280;23859;50.672;7.164;2023-03-18T03:35:51;96207.78;;;9.88;100.00
38054;BME280;23859;50.672;7.164;2023-03-18T03:38:17;96209.72;;;9.92;100.00
38054;BME280;23859;50.672;7.164;2023-03-18T03:40:44;96206.34;;;9.80;100.00
38054;BME280;23859;50.672;7.164;2023-03-18T03:43:12;96219.25;;;9.93;100.00
38054;BME280;23859;50.672;7.164;2023-03-18T03:45:39;96226.72;;;9.80;100.00
38054;BME280;23859;50.672;7.164;2023-03-18T03:48:06;96228.66;;;9.84;100.00
38054;BME280;23859;50.672;7.164;2023-03-18T03:50:34;96222.41;;;9.90;100.00
38054;BME280;23859;50.672;7.164;2023-03-18T03:53:00;96228.38;;;9.97;100.00
38054;BME280;23859;50.672;7.164;2023-03-18T03:55:27;96230.22;;;9.96;100.00
38054;BME280;23859;50.672;7.164;2023-03-18T03:57:54;96237.72;;;9.88;100.00
38054;BME280;23859;50.672;7.164;2023-03-18T04:00:21;96242.00;;;9.89;100.00
38054;BME280;23859;50.672;7.164;2023-03-18T04:02:49;96240.72;;;9.92;100.00
38054;BME280;23859;50.672;7.164;2023-03-18T04:05:17;96246.47;;;9.72;100.00
38054;BME280;23859;50.672;7.164;2023-03-18T04:07:45;96243.06;;;9.60;100.00
38054;BME280;23859;50.672;7.164;2023-03-18T04:10:13;96248.69;;;9.64;100.00
38054;BME280;23859;50.672;7.164;2023-03-18T04:12:40;96257.22;;;9.66;100.00
38054;BME280;23859;50.672;7.164;2023-03-18T04:15:07;96250.63;;;9.52;100.00
38054;BME280;23859;50.672;7.164;2023-03-18T04:17:35;96260.38;;;9.63;100.00
38054;BME280;23859;50.672;7.164;2023-03-18T04:20:02;96272.22;;;9.60;100.00
38054;BME280;23859;50.672;7.164;2023-03-18T04:22:30;96261.09;;;9.47;100.00
38054;BME280;23859;50.672;7.164;2023-03-18T04:24:56;96262.19;;;9.62;100.00
38054;BME280;23859;50.672;7.164;2023-03-18T04:27:22;96271.47;;;9.76;100.00
38054;BME280;23859;50.672;7.164;2023-03-18T04:29:48;96166.13;;;8.95;100.00
38054;BME280;23859;50.672;7.164;2023-03-18T04:32:14;96277.72;;;9.70;100.00
38054;BME280;23859;50.672;7.164;2023-03-18T04:34:40;96272.97;;;9.72;100.00
38054;BME280;23859;50.672;7.164;2023-03-18T04:37:06;96279.63;;;9.58;100.00
38054;BME280;23859;50.672;7.164;2023-03-18T04:39:33;96287.41;;;9.65;100.00
38054;BME280;23859;50.672;7.164;2023-03-18T04:42:00;96281.59;;;9.51;100.00
38054;BME280;23859;50.672;7.164;2023-03-18T04:44:26;96275.50;;;9.51;100.00
38054;BME280;23859;50.672;7.164;2023-03-18T04:46:52;96281.75;;;9.45;100.00
38054;BME280;23859;50.672;7.164;2023-03-18T04:49:19;96291.81;;;9.31;100.00
38054;BME280;23859;50.672;7.164;2023-03-18T04:51:45;96282.31;;;9.19;100.00
38054;BME280;23859;50.672;7.164;2023-03-18T04:54:12;96278.19;;;9.12;100.00
38054;BME280;23859;50.672;7.164;2023-03-18T04:56:38;96279.94;;;9.34;100.00
38054;BME280;23859;50.672;7.164;2023-03-18T04:59:05;96288.56;;;9.41;100.00
38054;BME280;23859;50.672;7.164;2023-03-18T05:01:31;96289.31;;;9.25;100.00
38054;BME280;23859;50.672;7.164;2023-03-18T05:03:58;96289.75;;;9.22;100.00
38054;BME280;23859;50.672;7.164;2023-03-18T05:06:27;96291.63;;;9.22;100.00
38054;BME280;23859;50.672;7.164;2023-03-18T05:08:54;96289.41;;;9.19;100.00
38054;BME280;23859;50.672;7.164;2023-03-18T05:11:22;96279.56;;;9.03;100.00
38054;BME280;23859;50.672;7.164;2023-03-18T05:13:48;96192.03;;;8.42;100.00
38054;BME280;23859;50.672;7.164;2023-03-18T05:16:15;96297.66;;;8.94;100.00
38054;BME280;23859;50.672;7.164;2023-03-18T05:18:41;96296.97;;;8.99;100.00
38054;BME280;23859;50.672;7.164;2023-03-18T05:21:08;96301.13;;;8.95;100.00
38054;BME280;23859;50.672;7.164;2023-03-18T05:23:35;96300.19;;;8.89;100.00
38054;BME280;23859;50.672;7.164;2023-03-18T05:26:02;96303.88;;;9.00;100.00
38054;BME280;23859;50.672;7.164;2023-03-18T05:28:28;96298.94;;;8.80;100.00
38054;BME280;23859;50.672;7.164;2023-03-18T05:30:54;96309.28;;;8.93;100.00
38054;BME280;23859;50.672;7.164;2023-03-18T05:33:20;96302.72;;;8.96;100.00
38054;BME280;23859;50.672;7.164;2023-03-18T05:35:47;96290.56;;;8.72;100.00
38054;BME280;23859;50.672;7.164;2023-03-18T05:38:13;96140.06;;;7.91;100.00
38054;BME280;23859;50.672;7.164;2023-03-18T05:40:40;96304.78;;;8.94;100.00
38054;BME280;23859;50.672;7.164;2023-03-18T05:43:07;96310.16;;;9.10;100.00
38054;BME280;23859;50.672;7.164;2023-03-18T05:45:33;96312.31;;;9.25;100.00
38054;BME280;23859;50.672;7.164;2023-03-18T05:47:59;96312.31;;;9.25;100.00
38054;BME280;23859;50.672;7.164;2023-03-18T05:50:33;96312.72;;;9.44;100.00
38054;BME280;23859;50.672;7.164;2023-03-18T05:53:00;96315.34;;;9.56;100.00
38054;BME280;23859;50.672;7.164;2023-03-18T05:55:27;96315.69;;;9.59;100.00
38054;BME280;23859;50.672;7.164;2023-03-18T05:57:55;96322.69;;;9.65;100.00
38054;BME280;23859;50.672;7.164;2023-03-18T06:00:21;96320.03;;;9.65;100.00
38054;BME280;23859;50.672;7.164;2023-03-18T06:02:49;96321.25;;;9.74;100.00
38054;BME280;23859;50.672;7.164;2023-03-18T06:05:17;96234.38;;;9.21;100.00
38054;BME280;23859;50.672;7.164;2023-03-18T06:07:44;96323.09;;;9.74;100.00
38054;BME280;23859;50.672;7.164;2023-03-18T06:10:11;96322.44;;;9.67;100.00
38054;BME280;23859;50.672;7.164;2023-03-18T06:12:37;96321.88;;;9.65;100.00
38054;BME280;23859;50.672;7.164;2023-03-18T06:15:06;96319.41;;;9.75;100.00
38054;BME280;23859;50.672;7.164;2023-03-18T06:17:32;96325.19;;;9.72;100.00
38054;BME280;23859;50.672;7.164;2023-03-18T06:19:59;96218.09;;;9.28;100.00
38054;BME280;23859;50.672;7.164;2023-03-18T06:22:25;96340.75;;;10.24;100.00
38054;BME280;23859;50.672;7.164;2023-03-18T06:24:52;96331.28;;;10.44;100.00
38054;BME280;23859;50.672;7.164;2023-03-18T06:27:19;96334.47;;;10.62;100.00
38054;BME280;23859;50.672;7.164;2023-03-18T06:29:45;96342.41;;;10.95;100.00
38054;BME280;23859;50.672;7.164;2023-03-18T06:32:11;96349.78;;;11.47;100.00
38054;BME280;23859;50.672;7.164;2023-03-18T06:34:37;96344.25;;;11.70;100.00
38054;BME280;23859;50.672;7.164;2023-03-18T06:37:04;96359.00;;;11.83;100.00
38054;BME280;23859;50.672;7.164;2023-03-18T06:39:30;96364.13;;;12.10;99.52
38054;BME280;23859;50.672;7.164;2023-03-18T06:41:56;96373.28;;;12.24;97.99
38054;BME280;23859;50.672;7.164;2023-03-18T06:44:22;96370.97;;;12.06;97.42
38054;BME280;23859;50.672;7.164;2023-03-18T06:46:49;96368.09;;;12.08;98.30
38054;BME280;23859;50.672;7.164;2023-03-18T06:49:16;96360.00;;;12.24;96.40
38054;BME280;23859;50.672;7.164;2023-03-18T06:51:42;96376.09;;;12.39;94.97
38054;BME280;23859;50.672;7.164;2023-03-18T06:54:09;96378.06;;;12.49;95.04
38054;BME280;23859;50.672;7.164;2023-03-18T06:56:36;96375.28;;;12.65;93.99
38054;BME280;23859;50.672;7.164;2023-03-18T06:59:05;96377.56;;;12.83;94.76
38054;BME280;23859;50.672;7.164;2023-03-18T07:01:33;96380.59;;;12.91;92.86
38054;BME280;23859;50.672;7.164;2023-03-18T07:03:59;96378.56;;;13.08;92.45
38054;BME280;23859;50.672;7.164;2023-03-18T07:06:26;96381.53;;;13.12;91.72
38054;BME280;23859;50.672;7.164;2023-03-18T07:08:52;96382.38;;;13.22;90.62
38054;BME280;23859;50.672;7.164;2023-03-18T07:11:19;96396.56;;;13.74;89.69
38054;BME280;23859;50.672;7.164;2023-03-18T07:13:46;96404.53;;;14.25;85.51
38054;BME280;23859;50.672;7.164;2023-03-18T07:16:13;96407.25;;;14.40;84.19
38054;BME280;23859;50.672;7.164;2023-03-18T07:18:39;96423.34;;;14.84;82.76
38054;BME280;23859;50.672;7.164;2023-03-18T07:21:05;96416.91;;;14.61;82.02
38054;BME280;23859;50.672;7.164;2023-03-18T07:23:32;96413.63;;;14.39;83.21
38054;BME280;23859;50.672;7.164;2023-03-18T07:25:59;96416.91;;;14.61;81.08
38054;BME280;23859;50.672;7.164;2023-03-18T07:28:25;96423.63;;;15.03;79.14
38054;BME280;23859;50.672;7.164;2023-03-18T07:30:51;96428.69;;;15.04;79.04
38054;BME280;23859;50.672;7.164;2023-03-18T07:33:17;96433.25;;;15.48;75.91
38054;BME280;23859;50.672;7.164;2023-03-18T07:35:44;96431.38;;;14.99;78.78
38054;BME280;23859;50.672;7.164;2023-03-18T07:38:10;96420.63;;;14.64;80.30
38054;BME280;23859;50.672;7.164;2023-03-18T07:40:37;96424.31;;;14.34;80.85
38054;BME280;23859;50.672;7.164;2023-03-18T07:43:04;96421.06;;;14.27;82.09
38054;BME280;23859;50.672;7.164;2023-03-18T07:45:31;96429.09;;;14.27;81.91
38054;BME280;23859;50.672;7.164;2023-03-18T07:47:57;96426.81;;;14.70;80.73
38054;BME280;23859;50.672;7.164;2023-03-18T07:50:23;96441.03;;;15.30;78.15
38054;BME280;23859;50.672;7.164;2023-03-18T07:52:49;96442.59;;;15.61;76.05
38054;BME280;23859;50.672;7.164;2023-03-18T07:55:15;96439.91;;;15.61;75.92
38054;BME280;23859;50.672;7.164;2023-03-18T07:57:41;96437.75;;;15.68;74.83
38054;BME280;23859;50.672;7.164;2023-03-18T08:00:09;96444.63;;;15.98;73.13
38054;BME280;23859;50.672;7.164;2023-03-18T08:02:35;96453.94;;;16.31;73.38
38054;BME280;23859;50.672;7.164;2023-03-18T08:05:03;96460.09;;;16.31;72.46
38054;BME280;23859;50.672;7.164;2023-03-18T08:07:32;96447.47;;;16.37;72.71
38054;BME280;23859;50.672;7.164;2023-03-18T08:09:58;96458.06;;;16.62;71.14
38054;BME280;23859;50.672;7.164;2023-03-18T08:12:25;96457.78;;;16.63;70.63
38054;BME280;23859;50.672;7.164;2023-03-18T08:14:51;96451.00;;;16.27;72.87
38054;BME280;23859;50.672;7.164;2023-03-18T08:17:17;96460.13;;;16.74;71.02
38054;BME280;23859;50.672;7.164;2023-03-18T08:19:43;96457.25;;;16.56;71.67
38054;BME280;23859;50.672;7.164;2023-03-18T08:22:10;96463.03;;;16.78;71.48
38054;BME280;23859;50.672;7.164;2023-03-18T08:24:36;96465.19;;;16.81;70.86
38054;BME280;23859;50.672;7.164;2023-03-18T08:27:04;96476.19;;;17.56;68.29
38054;BME280;23859;50.672;7.164;2023-03-18T08:29:30;96474.31;;;17.18;68.87
38054;BME280;23859;50.672;7.164;2023-03-18T08:31:57;96476.22;;;17.51;67.54
38054;BME280;23859;50.672;7.164;2023-03-18T08:34:23;96482.38;;;18.08;64.65
38054;BME280;23859;50.672;7.164;2023-03-18T08:36:50;96486.59;;;18.19;64.25
38054;BME280;23859;50.672;7.164;2023-03-18T08:39:16;96484.72;;;18.43;63.62
38054;BME280;23859;50.672;7.164;2023-03-18T08:41:42;96475.72;;;18.29;62.24
38054;BME280;23859;50.672;7.164;2023-03-18T08:44:08;96482.22;;;18.46;62.84
38054;BME280;23859;50.672;7.164;2023-03-18T08:46:36;96487.06;;;18.49;63.15
38054;BME280;23859;50.672;7.164;2023-03-18T08:49:03;96515.50;;;19.15;61.00
38054;BME280;23859;50.672;7.164;2023-03-18T08:51:30;96494.41;;;18.62;62.59
38054;BME280;23859;50.672;7.164;2023-03-18T08:53:57;96511.31;;;19.59;58.90
38054;BME280;23859;50.672;7.164;2023-03-18T08:56:24;96513.59;;;20.16;57.13
38054;BME280;23859;50.672;7.164;2023-03-18T08:58:50;96513.44;;;20.39;55.87
38054;BME280;23859;50.672;7.164;2023-03-18T09:01:17;96516.09;;;19.81;57.54
38054;BME280;23859;50.672;7.164;2023-03-18T09:03:47;96506.97;;;19.45;58.42
38054;BME280;23859;50.672;7.164;2023-03-18T09:06:13;96525.94;;;20.62;55.26
38054;BME280;23859;50.672;7.164;2023-03-18T09:08:39;96543.44;;;21.97;50.54
38054;BME280;23859;50.672;7.164;2023-03-18T09:11:06;96548.63;;;22.68;49.74
38054;BME280;23859;50.672;7.164;2023-03-18T09:13:32;96547.22;;;22.40;49.33
38054;BME280;23859;50.672;7.164;2023-03-18T09:15:59;96532.03;;;21.43;50.93
38054;BME280;23859;50.672;7.164;2023-03-18T09:18:25;96518.84;;;20.66;53.17
38054;BME280;23859;50.672;7.164;2023-03-18T09:20:51;96509.00;;;19.85;56.95
38054;BME280;23859;50.672;7.164;2023-03-18T09:23:18;96507.50;;;20.24;54.86
38054;BME280;23859;50.672;7.164;2023-03-18T09:25:45;96514.06;;;20.05;57.21
38054;BME280;23859;50.672;7.164;2023-03-18T09:28:12;96522.19;;;20.31;55.62
38054;BME280;23859;50.672;7.164;2023-03-18T09:30:39;96518.03;;;19.94;59.47
38054;BME280;23859;50.672;7.164;2023-03-18T09:33:06;96504.97;;;20.01;56.05
38054;BME280;23859;50.672;7.164;2023-03-18T09:35:33;96498.38;;;19.61;57.62
38054;BME280;23859;50.672;7.164;2023-03-18T09:37:59;96512.47;;;20.76;54.30
38054;BME280;23859;50.672;7.164;2023-03-18T09:40:28;96523.72;;;21.40;52.13
38054;BME280;23859;50.672;7.164;2023-03-18T09:43:08;96534.94;;;22.12;51.03
38054;BME280;23859;50.672;7.164;2023-03-18T09:46:10;96512.13;;;21.04;51.89
38054;BME280;23859;50.672;7.164;2023-03-18T09:51:50;96515.09;;;21.16;51.26
38054;BME280;23859;50.672;7.164;2023-03-18T09:54:31;96506.94;;;20.54;50.52
38054;BME280;23859;50.672;7.164;2023-03-18T09:57:02;96513.75;;;20.51;51.28
38054;BME280;23859;50.672;7.164;2023-03-18T10:01:58;96518.50;;;21.08;49.70
38054;BME280;23859;50.672;7.164;2023-03-18T10:04:36;96508.41;;;20.73;51.56
38054;BME280;23859;50.672;7.164;2023-03-18T10:07:15;96496.63;;;20.29;52.38
38054;BME280;23859;50.672;7.164;2023-03-18T10:10:00;96516.13;;;20.93;50.57
38054;BME280;23859;50.672;7.164;2023-03-18T10:12:49;96494.72;;;20.03;53.79
38054;BME280;23859;50.672;7.164;2023-03-18T10:15:33;96496.41;;;19.48;55.56
38054;BME280;23859;50.672;7.164;2023-03-18T10:18:11;96510.94;;;20.29;54.87
38054;BME280;23859;50.672;7.164;2023-03-18T10:20:59;96509.00;;;20.16;56.06
38054;BME280;23859;50.672;7.164;2023-03-18T10:23:34;96502.81;;;20.16;52.75
38054;BME280;23859;50.672;7.164;2023-03-18T10:26:19;96510.03;;;20.47;52.34
38054;BME280;23859;50.672;7.164;2023-03-18T10:34:25;96528.31;;;21.52;49.01
38054;BME280;23859;50.672;7.164;2023-03-18T10:39:35;96541.53;;;22.50;48.40
38054;BME280;23859;50.672;7.164;2023-03-18T10:42:20;96538.06;;;22.58;45.82
38054;BME280;23859;50.672;7.164;2023-03-18T10:44:48;96558.25;;;23.54;44.49
38054;BME280;23859;50.672;7.164;2023-03-18T10:47:18;96555.41;;;23.51;44.44
38054;BME280;23859;50.672;7.164;2023-03-18T10:49:56;96582.00;;;24.50;43.67
38054;BME280;23859;50.672;7.164;2023-03-18T10:52:36;96571.50;;;24.15;42.68
38054;BME280;23859;50.672;7.164;2023-03-18T10:55:03;96583.22;;;24.78;40.35
38054;BME280;23859;50.672;7.164;2023-03-18T10:57:29;96561.66;;;23.94;41.03
38054;BME280;23859;50.672;7.164;2023-03-18T10:59:57;96562.28;;;23.91;40.88
38054;BME280;23859;50.672;7.164;2023-03-18T11:02:34;96547.50;;;23.07;42.92
38054;BME280;23859;50.672;7.164;2023-03-18T11:05:26;96548.53;;;23.37;42.08
38054;BME280;23859;50.672;7.164;2023-03-18T11:08:05;96553.63;;;23.38;42.21
38054;BME280;23859;50.672;7.164;2023-03-18T11:10:53;96541.09;;;22.95;42.35
38054;BME280;23859;50.672;7.164;2023-03-18T11:13:20;96520.94;;;21.66;45.27
38054;BME280;23859;50.672;7.164;2023-03-18T11:15:51;96518.00;;;21.76;45.54
38054;BME280;23859;50.672;7.164;2023-03-18T11:18:22;96502.31;;;20.68;48.65
38054;BME280;23859;50.672;7.164;2023-03-18T11:20:57;96505.81;;;20.41;48.72
38054;BME280;23859;50.672;7.164;2023-03-18T11:26:23;96500.28;;;19.93;50.45
38054;BME280;23859;50.672;7.164;2023-03-18T11:28:55;96501.44;;;19.87;51.22
38054;BME280;23859;50.672;7.164;2023-03-18T11:31:22;96505.66;;;20.51;51.96
38054;BME280;23859;50.672;7.164;2023-03-18T11:33:48;96501.13;;;20.47;50.24
38054;BME280;23859;50.672;7.164;2023-03-18T11:36:20;96508.22;;;20.16;52.02
38054;BME280;23859;50.672;7.164;2023-03-18T11:38:57;96514.03;;;20.90;48.98
38054;BME280;23859;50.672;7.164;2023-03-18T11:41:25;96505.81;;;20.41;50.61
38054;BME280;23859;50.672;7.164;2023-03-18T11:44:04;96437.47;;;21.08;47.48
38054;BME280;23859;50.672;7.164;2023-03-18T11:46:51;96506.69;;;21.17;48.86
38054;BME280;23859;50.672;7.164;2023-03-18T11:49:22;96498.16;;;20.75;48.20
38054;BME280;23859;50.672;7.164;2023-03-18T11:52:17;96493.63;;;20.84;48.32
38054;BME280;23859;50.672;7.164;2023-03-18T11:54:54;96490.84;;;20.62;49.40
38054;BME280;23859;50.672;7.164;2023-03-18T12:00:32;96453.47;;;20.29;51.25
38054;BME280;23859;50.672;7.164;2023-03-18T12:03:15;96506.03;;;20.85;49.30
38054;BME280;23859;50.672;7.164;2023-03-18T12:08:32;96495.69;;;21.14;49.22
38054;BME280;23859;50.672;7.164;2023-03-18T12:14:00;96497.28;;;21.15;48.28
38054;BME280;23859;50.672;7.164;2023-03-18T12:22:25;96481.09;;;21.15;50.14
38054;BME280;23859;50.672;7.164;2023-03-18T12:33:26;96459.94;;;20.41;53.32
38054;BME280;23859;50.672;7.164;2023-03-18T12:36:08;96462.72;;;20.63;50.37
38054;BME280;23859;50.672;7.164;2023-03-18T12:44:17;96450.88;;;20.10;51.34
38054;BME280;23859;50.672;7.164;2023-03-18T12:47:05;96448.19;;;19.79;52.86
38054;BME280;23859;50.672;7.164;2023-03-18T12:49:37;96446.25;;;19.52;53.51
38054;BME280;23859;50.672;7.164;2023-03-18T12:52:12;96449.25;;;19.64;53.99
38054;BME280;23859;50.672;7.164;2023-03-18T12:55:03;96441.53;;;19.44;54.41
38054;BME280;23859;50.672;7.164;2023-03-18T12:57:45;96434.78;;;19.29;54.26
38054;BME280;23859;50.672;7.164;2023-03-18T13:02:50;96426.59;;;18.83;56.81
38054;BME280;23859;50.672;7.164;2023-03-18T13:05:23;96429.13;;;18.75;56.98
38054;BME280;23859;50.672;7.164;2023-03-18T13:08:04;96423.59;;;18.48;56.60
38054;BME280;23859;50.672;7.164;2023-03-18T13:10:34;96428.91;;;18.53;57.52
38054;BME280;23859;50.672;7.164;2023-03-18T13:13:05;96429.56;;;18.82;57.29
38054;BME280;23859;50.672;7.164;2023-03-18T13:15:47;96425.44;;;18.89;57.59
38054;BME280;23859;50.672;7.164;2023-03-18T13:20:57;96416.28;;;18.72;57.62
38054;BME280;23859;50.672;7.164;2023-03-18T13:29:19;96399.88;;;17.85;63.44
38054;BME280;23859;50.672;7.164;2023-03-18T13:40:12;96384.97;;;18.21;63.55
38054;BME280;23859;50.672;7.164;2023-03-18T13:42:44;96391.75;;;18.37;61.96
38054;BME280;23859;50.672;7.164;2023-03-18T13:45:36;96386.53;;;18.45;61.87
38054;BME280;23859;50.672;7.164;2023-03-18T13:48:07;96385.06;;;18.34;61.91
38054;BME280;23859;50.672;7.164;2023-03-18T13:50:41;96380.31;;;18.03;63.22
38054;BME280;23859;50.672;7.164;2023-03-18T13:58:23;96380.84;;;18.05;63.73
38054;BME280;23859;50.672;7.164;2023-03-18T14:03:27;96384.78;;;18.36;61.94
38054;BME280;23859;50.672;7.164;2023-03-18T14:08:34;96368.97;;;18.06;63.37
38054;BME280;23859;50.672;7.164;2023-03-18T14:13:50;96389.75;;;18.24;61.69
38054;BME280;23859;50.672;7.164;2023-03-18T14:16:21;96373.09;;;18.22;61.52
38054;BME280;23859;50.672;7.164;2023-03-18T14:19:02;96377.56;;;18.08;61.08
38054;BME280;23859;50.672;7.164;2023-03-18T14:28:22;96369.28;;;18.04;58.75
38054;BME280;23859;50.672;7.164;2023-03-18T14:39:43;96359.63;;;18.64;55.02
38054;BME280;23859;50.672;7.164;2023-03-18T14:44:54;96275.63;;;18.35;53.79
38054;BME280;23859;50.672;7.164;2023-03-18T14:47:38;96373.69;;;19.11;54.49
38054;BME280;23859;50.672;7.164;2023-03-18T14:53:17;96373.41;;;19.12;54.10